Craigencallie, United Kingdom
Current Conditions -  °F | °C
As of 3:50 PM on Friday 19 Dec 2014 (Local Time) from EGPK Reporting Station
Light Rain Light Rain  
Wind Chill: 32°   Ceiling: Unl
Heat Index: 43°   Visibility: 6mi
Dew Point: 37°   Wind: 29mph
Humidity: 81%   Direction: 280°W
Pressure: 29.77"   Gusts: 41mph
Location:  55.07°N, 4.34°W
Report Text: EGPK 191550Z 28025G36KT 9999 -RA FEW007 FEW012CB SCT020 06/03 Q1008
Loading
Personal Weather Stations






























Interactive Weather Map New forecast layout! Learn more

10-Day Weather Forecast

Advertisements
Track Severe Weather on mobile